Home > Products > Valid Products > TAF

000
FTUS43 KMPX 261740
TAFAXN
TAF
KAXN 261740Z 2618/2718 30012KT P6SM SCT035
      TEMPO 2618/2622 BKN035
     FM270100 33009KT P6SM SCT025 BKN100
     FM270600 VRB03KT P6SM SCT100=



000
FTUS43 KMPX 261740
TAFSTC
TAF
KSTC 261740Z 2618/2718 30010KT P6SM SCT030
     FM262100 30008KT P6SM SCT015 BKN025
     FM270500 32007KT P6SM SCT020 BKN100
     FM271000 VRB03KT P6SM BKN100=



000
FTUS43 KMPX 261740
TAFEAU
TAF
KEAU 261740Z 2618/2718 22008KT 3SM BR BKN006 OVC010
     FM262100 29005KT 6SM BR BKN011 OVC020
     FM270600 34004KT P6SM OVC020
     FM271200 02004KT P6SM SCT020=



000
FTUS43 KMPX 261740
TAFMSP
TAF
KMSP 261740Z 2618/2724 25012G20KT P6SM SCT020
     FM262100 30013G20KT P6SM BKN025
     FM270700 32009KT P6SM SCT025 BKN150
     FM271200 VRB03KT P6SM FEW100 SCT250
     FM271800 15005KT P6SM BKN250=



000
FTUS43 KMPX 261740
TAFRWF
TAF
KRWF 261740Z 2618/2718 30012KT P6SM SKC
     FM270200 32008KT P6SM SCT100
     FM270900 VRB03KT P6SM BKN100=



000
FTUS43 KMPX 261458 AAB
TAFMSP
TAF AMD
KMSP 261458Z 2615/2718 16009KT P6SM OVC020
      TEMPO 2615/2617 OVC012
     FM261700 25012G20KT P6SM SCT020
     FM261900 30013G20KT P6SM BKN025
     FM270400 32009KT P6SM SCT025 BKN150
     FM271200 VRB03KT P6SM BKN100=



000
FTUS43 KMPX 261428 AAB
TAFEAU
TAF AMD
KEAU 261428Z 2614/2712 17008KT P6SM OVC015
      TEMPO 2614/2618 6SM -FZDZSN BR OVC008
     FM261800 22008KT P6SM OVC010
     FM262100 29005KT P6SM OVC020
     FM270600 34004KT P6SM SCT020 BKN150=



000
FTUS43 KMPX 261421 AAA
TAFMSP
TAF AMD
KMSP 261421Z 2614/2718 16009KT P6SM OVC020
      TEMPO 2614/2616 OVC008
     FM261600 25012G20KT P6SM SCT015 BKN120
     FM261900 30013G20KT P6SM BKN025
     FM270400 32009KT P6SM SCT025 BKN150
     FM271200 VRB03KT P6SM BKN100=



000
FTUS43 KMPX 261321 AAA
TAFEAU
TAF AMD
KEAU 261321Z 2613/2712 17008KT 4SM -SN BR OVC015
      TEMPO 2613/2615 1SM -SN BR VV007
     FM261500 17008KT 6SM -FZDZSN BR OVC008
     FM261800 22008KT P6SM OVC010
     FM262100 29005KT P6SM OVC020
     FM270600 34004KT P6SM SCT020 BKN150=



000
FTUS43 KMPX 261313 AAA
TAFRWF
TAF AMD
KRWF 261313Z 2613/2712 29017G25KT P6SM SCT120
     FM261500 30014G22KT P6SM SCT150
     FM270200 32008KT P6SM SCT100
     FM270900 VRB03KT P6SM BKN100=



000
FTUS43 KMPX 261139
TAFRWF
TAF
KRWF 261139Z 2612/2712 23017G25KT P6SM BKN120
     FM261500 30014G22KT P6SM SCT150
     FM270200 32008KT P6SM SCT100
     FM270900 VRB03KT P6SM BKN100=



000
FTUS43 KMPX 261139
TAFAXN
TAF
KAXN 261139Z 2612/2712 27015G22KT P6SM SCT150
     FM261600 31015G22KT P6SM SCT025
     FM270100 33009KT P6SM SCT025 BKN100
     FM270600 VRB03KT P6SM BKN100=



000
FTUS43 KMPX 261139
TAFEAU
TAF
KEAU 261139Z 2612/2712 17008KT 1 1/2SM -SN BR VV012
      TEMPO 2612/2615 1/2SM SN FZFG VV007
     FM261500 17008KT 6SM -FZDZSN BR OVC008
     FM261800 22008KT P6SM OVC010
     FM262100 29005KT P6SM OVC020
     FM270600 34004KT P6SM SCT020 BKN150=



000
FTUS43 KMPX 261139
TAFMSP
TAF
KMSP 261139Z 2612/2718 16009KT P6SM OVC011
      TEMPO 2612/2616 OVC008
     FM261600 25012G20KT P6SM SCT015 BKN120
     FM261900 30013G20KT P6SM BKN025
     FM270400 32009KT P6SM SCT025 BKN150
     FM271200 VRB03KT P6SM BKN100=



000
FTUS43 KMPX 261139
TAFSTC
TAF
KSTC 261139Z 2612/2712 19008KT P6SM OVC012
      TEMPO 2612/2614 OVC008
     FM261500 28011KT P6SM SCT015 BKN120
     FM261700 30012KT P6SM BKN025
     FM270300 32007KT P6SM SCT020 BKN100
     FM270800 VRB03KT P6SM BKN100=



000
FTUS43 KMPX 260857 AAB
TAFMSP
TAF AMD
KMSP 260857Z 2609/2712 17007KT P6SM OVC020
      TEMPO 2609/2611 5SM -SN OVC016
     FM261400 25008KT P6SM BKN025
      TEMPO 2614/2617 SCT025 OVC100
     FM262100 30010G19KT P6SM OVC025
     FM270100 32009KT P6SM OVC020=



000
FTUS43 KMPX 260850 AAA
TAFSTC
TAF AMD
KSTC 260850Z 2609/2706 19008KT P6SM BKN015 BKN100
      TEMPO 2613/2616 SCT015 OVC100
     FM261600 30011G18KT P6SM OVC020
     FM270000 33007KT P6SM OVC020=



000
FTUS43 KMPX 260832 AAA
TAFEAU
TAF AMD
KEAU 260832Z 2609/2706 18008KT P6SM BKN019 OVC120
      TEMPO 2609/2611 OVC120
     FM261100 17008KT 1 1/2SM -SN OVC009
      TEMPO 2611/2614 3/4SM -SN VV007
     FM261400 17006KT 6SM -FZDZSN BR OVC012
     FM261600 18008KT P6SM OVC015
     FM262100 24006KT P6SM OVC025=



000
FTUS43 KMPX 260832 AAA
TAFEAU
TAF AMD
KEAU 260832Z 2609/2706 18008KT P6SM BKN019 OVC120
      TEMPO 2609/2611 OVC120
     FM261100 17008KT 1 1/2SM -SN OVC009
      TEMPO 2611/2614 3/4SM -SN VV007
     FM261400 17006KT 6SM -FZDZSN BR OVC012
     FM261600 18008KT P6SM OVC015
     FM262100 24006KT P6SM OVC025=



000
FTUS43 KMPX 260828 AAA
TAFRWF
TAF AMD
KRWF 260828Z 2608/2706 20010KT P6SM BKN030 OVC070
     FM261100 24014KT P6SM SCT030 BKN100
     FM261700 31015G22KT P6SM BKN025
     FM270000 33010KT P6SM OVC020=



000
FTUS43 KMPX 260828 AAA
TAFRWF
TAF AMD
KRWF 260828Z 2608/2706 20010KT P6SM BKN030 OVC070
     FM261100 24014KT P6SM SCT030 BKN100
     FM261700 31015G22KT P6SM BKN025
     FM270000 33010KT P6SM OVC020=



000
FTUS43 KMPX 260822 AAA
TAFMSP
TAF AMD
KMSP 260822Z 2608/2712 18005KT P6SM OVC020
      TEMPO 2610/2612 5SM -SN
     FM261400 25008KT P6SM BKN025
      TEMPO 2614/2617 SCT025 OVC100
     FM262100 30010G19KT P6SM OVC025
     FM270100 32009KT P6SM OVC020=



000
FTUS43 KMPX 260520
TAFAXN
TAF
KAXN 260520Z 2606/2706 20009KT P6SM SCT020 OVC100
      TEMPO 2606/2608 BKN020 OVC100
     FM260800 19011KT P6SM VCSH FEW025 OVC100
     FM261100 25013KT 6SM BR BKN100
     FM261600 31015G22KT P6SM BKN025
     FM270000 33007KT P6SM OVC020=



000
FTUS43 KMPX 260520
TAFRWF
TAF
KRWF 260520Z 2606/2706 19008KT P6SM BKN020 OVC100
      TEMPO 2606/2608 SCT020 OVC100
     FM260800 20010KT 6SM -FZDZSN BR OVC020
     FM261100 24014KT 6SM BR SCT020 BKN100
     FM261700 31015G22KT P6SM BKN025
     FM270000 33010KT P6SM OVC020=



000
FTUS43 KMPX 260520
TAFSTC
TAF
KSTC 260520Z 2606/2706 18007KT P6SM FEW018 OVC100
     FM260800 19010KT 6SM -SN BR OVC015
     FM261200 20007KT P6SM BKN015 BKN100
      TEMPO 2613/2616 SCT015 OVC100
     FM261600 30011G18KT P6SM OVC020
     FM270000 33007KT P6SM OVC020=



000
FTUS43 KMPX 260520
TAFMSP
TAF
KMSP 260520Z 2606/2712 19006KT P6SM OVC120
      TEMPO 2606/2608 BKN020 OVC120
     FM260800 18009KT 4SM -SN OVC020
     FM261100 19009KT P6SM OVC020
     FM261400 25008KT P6SM BKN025
      TEMPO 2614/2617 SCT025 OVC100
     FM262100 30010G19KT P6SM OVC025
     FM270100 32009KT P6SM OVC020=



000
FTUS43 KMPX 260520
TAFEAU
TAF
KEAU 260520Z 2606/2706 16002KT P6SM OVC120
      TEMPO 2609/2610 BKN020 OVC120
     FM261000 17005KT 1 1/2SM -SN OVC009
      TEMPO 2611/2614 3/4SM -SN VV007
     FM261400 17006KT 6SM -FZDZSN BR OVC012
     FM261600 18008KT P6SM OVC015
     FM262100 24006KT P6SM OVC025=



000
FTUS43 KMPX 260313 AAA
TAFMSP
TAF AMD
KMSP 260313Z 2603/2706 17004KT P6SM SCT250
     FM260600 17007KT P6SM SCT020
      TEMPO 2606/2609 BKN020
     FM260900 19009KT 5SM -SN OVC015
     FM261500 25008KT 6SM HZ OVC020
     FM262100 30010KT P6SM BKN035=



000
FTUS43 KMPX 260236 AAA
TAFSTC
TAF AMD
KSTC 260236Z 2603/2624 16003KT P6SM BKN150
     FM260400 17005KT P6SM OVC020
     FM260600 18007KT P6SM OVC015
     FM260800 19010KT 6SM -SN BR OVC012
     FM261400 27007KT 6SM BR SCT015 BKN100
     FM261800 31011G18KT P6SM SCT025 BKN100=



000
FTUS43 KMPX 260001 CCA
TAFAXN
TAF COR
KAXN 260001Z 2600/2624 19007KT P6SM SCT015
     FM260400 19010KT P6SM VCSH OVC015
     FM261100 27009KT 6SM BR FEW010 BKN100
     FM261800 31015G22KT P6SM BKN025=



000
FTUS43 KMPX 252343
TAFSTC
TAF
KSTC 252343Z 2600/2624 00000KT P6SM FEW020 SCT100
     FM260130 17003KT P6SM OVC020
     FM260600 18007KT P6SM OVC015
     FM260800 19010KT 6SM -SN BR OVC012 PROB30 2609/2613 4SM -FZDZ
      BR OVC008
     FM261400 27007KT 6SM BR SCT015 BKN100
     FM261800 31011G18KT P6SM SCT025 BKN100=



000
FTUS43 KMPX 252343
TAFMSP
TAF
KMSP 252343Z 2600/2706 13004KT P6SM SCT250
     FM260600 17007KT P6SM OVC020
     FM260900 19009KT 5SM -SN OVC015 PROB30 2611/2614 3SM -FZDZ BR
      OVC010
     FM261500 25008KT 6SM HZ OVC020
     FM262100 30010KT P6SM BKN035=



000
FTUS43 KMPX 252343
TAFRWF
TAF
KRWF 252343Z 2600/2624 00000KT P6SM OVC020
     FM260700 19010KT 6SM -SN BR OVC012
      TEMPO 2608/2611 4SM -FZDZ BR
     FM261100 24014G20KT 6SM BR SCT015 BKN100
     FM261700 31015G22KT P6SM BKN025=



000
FTUS43 KMPX 252343
TAFAXN
TAF
KAXN 252343Z 2600/2624 19007KT P6SM OVC015
     FM260800 19010KT P6SM VCSH OVC010
     FM261100 27009KT 6SM BR FEW010 BKN100
     FM261800 31015G22KT P6SM BKN025=



000
FTUS43 KMPX 252343
TAFEAU
TAF
KEAU 252343Z 2600/2624 VRB03KT P6SM SCT020 BKN100
     FM260600 18006KT P6SM SCT020 OVC060
     FM261000 18009KT 1 1/2SM -SN OVC012
     FM261600 21007KT 4SM -SN BR OVC015=



000
FTUS43 KMPX 252053 AAA
TAFMSP
TAF AMD
KMSP 252053Z 2521/2624 03007KT P6SM SKC
     FM260000 VRB03KT P6SM FEW020 SCT100
     FM260600 17008KT P6SM SCT020 BKN060
     FM260900 19009KT 5SM -SN OVC015 PROB30 2611/2614 3SM -FZDZ BR
      OVC010
     FM261500 25008KT 6SM HZ OVC020
     FM262100 30010KT P6SM BKN035=



000
FTUS43 KMPX 252050 AAA
TAFSTC
TAF AMD
KSTC 252050Z 2521/2618 03004KT P6SM SCT023
     FM260200 17004KT P6SM SCT015
     FM260600 18007KT P6SM BKN015
     FM260800 19010KT 6SM -SN BR OVC012 PROB30 2609/2613 4SM -FZDZ
      BR OVC008
     FM261400 27007KT 6SM BR OVC015=



000
FTUS43 KMPX 252049 AAA
TAFRWF
TAF AMD
KRWF 252049Z 2521/2618 03005KT P6SM BKN016
     FM252200 34003KT P6SM SCT018
      TEMPO 2522/2524 BKN015
     FM260000 18006KT P6SM OVC015
     FM260900 19013KT P6SM BKN008 OVC030
     FM261400 29012KT P6SM SCT010 BKN040=



000
FTUS43 KMPX 251730
TAFRWF
TAF
KRWF 251730Z 2518/2618 05005KT P6SM SCT025
      TEMPO 2519/2522 SCT025
     FM252200 34003KT P6SM SCT020 BKN100
     FM260200 18006KT P6SM OVC015
     FM260900 19013KT P6SM BKN008 OVC030
     FM261400 29012KT P6SM SCT010 BKN040=



000
FTUS43 KMPX 251730
TAFSTC
TAF
KSTC 251730Z 2518/2618 07004KT P6SM BKN020
      TEMPO 2518/2522 SCT020
     FM252200 VRB03KT P6SM BKN018
     FM260200 17004KT P6SM OVC015
     FM260800 19010KT 6SM -SN BR OVC012 PROB30 2609/2613 4SM -FZDZ
      BR OVC008
     FM261400 27007KT 6SM BR OVC015=



000
FTUS43 KMPX 251730
TAFMSP
TAF
KMSP 251730Z 2518/2624 04010KT P6SM SCT025 OVC110
     FM252200 05003KT P6SM SCT020 BKN100
     FM260600 17008KT P6SM OVC020
     FM260900 19009KT 5SM -SN OVC015 PROB30 2611/2614 3SM -FZDZ BR
      OVC010
     FM261500 25008KT 6SM HZ OVC020
     FM262100 30010KT P6SM BKN035=



000
FTUS43 KMPX 251730
TAFAXN
TAF
KAXN 251730Z 2518/2618 34004KT P6SM OVC018
     FM252100 25003KT P6SM BKN018
      TEMPO 2521/2524 SCT018
     FM260200 19007KT P6SM BKN015
     FM260800 19010KT P6SM OVC010 PROB30 2608/2612 4SM -FZDZ BR
      OVC006
     FM261200 27009KT 6SM BR OVC012=



000
FTUS43 KMPX 251730
TAFEAU
TAF
KEAU 251730Z 2518/2618 05011KT P6SM FEW020 SCT120
     FM252100 04004KT P6SM SCT020 BKN120
      TEMPO 2521/2524 BKN020
     FM260000 VRB03KT P6SM SCT020 BKN100
     FM260600 18006KT P6SM SCT020 OVC060
     FM261000 18009KT 1 1/2SM -SN OVC012
     FM261600 21007KT 4SM -SN BR OVC015=



000
FTUS43 KMPX 251611 AAB
TAFSTC
TAF AMD
KSTC 251611Z 2516/2612 04007KT P6SM BKN020
      TEMPO 2516/2518 SCT020
     FM251800 VRB04KT P6SM SCT050
     FM260500 19010KT P6SM SCT030 BKN050=



000
FTUS43 KMPX 251611 AAA
TAFAXN
TAF AMD
KAXN 251611Z 2516/2612 10007KT P6SM OVC012
     FM251800 VRB03KT P6SM BKN020
     FM252100 24005KT P6SM SCT050
     FM260600 20012KT P6SM BKN050=



000
FTUS43 KMPX 251458 AAB
TAFMSP
TAF AMD
KMSP 251458Z 2515/2618 04012KT P6SM SCT030 BKN200
     FM251800 05007KT P6SM FEW025 SCT060
     FM252100 VRB03KT P6SM SCT060
     FM260600 17008KT P6SM BKN025 OVC040
     FM261500 24008KT P6SM OVC035=



000
FTUS43 KMPX 251406 AAA
TAFEAU
TAF AMD
KEAU 251406Z 2514/2612 05011KT P6SM SCT018 BKN035
      TEMPO 2515/2518 BKN018
     FM251800 03009KT P6SM SCT025 BKN050
     FM252200 VRB03KT P6SM SCT050
     FM260700 18006KT P6SM SCT030 BKN050=



000
FTUS43 KMPX 251405 AAA
TAFSTC
TAF AMD
KSTC 251405Z 2514/2612 04007KT P6SM BKN019
      TEMPO 2514/2518 SCT019 BKN150
     FM251800 VRB04KT P6SM SCT050
     FM260500 19010KT P6SM SCT030 BKN050=



000
FTUS43 KMPX 251404 AAA
TAFMSP
TAF AMD
KMSP 251404Z 2514/2618 04011KT P6SM SCT030 BKN200
     FM251800 05007KT P6SM SCT025 BKN060
     FM252100 VRB03KT P6SM SCT060
     FM260600 17008KT P6SM SCT030 BKN060
     FM261500 24008KT P6SM SCT200=



000
FTUS43 KMPX 251135
TAFEAU
TAF
KEAU 251135Z 2512/2612 05011KT P6SM OVC020
     FM251800 03009KT P6SM SCT025 BKN050
     FM252200 VRB03KT P6SM SCT050
     FM260700 18006KT P6SM SCT030 BKN050=



000
FTUS43 KMPX 251135
TAFAXN
TAF
KAXN 251135Z 2512/2612 04007KT P6SM OVC012
     FM251600 VRB03KT P6SM BKN020
     FM252100 24005KT P6SM SCT050
     FM260600 20012KT P6SM BKN050=



000
FTUS43 KMPX 251135
TAFSTC
TAF
KSTC 251135Z 2512/2612 04007KT P6SM OVC022
     FM251800 VRB04KT P6SM SCT050
     FM260500 19010KT P6SM SCT030 BKN050=



000
FTUS43 KMPX 251135
TAFMSP
TAF
KMSP 251135Z 2512/2618 03013KT P6SM OVC025
     FM251800 03007KT P6SM SCT025 BKN060
     FM252100 VRB03KT P6SM SCT060
     FM260600 17008KT P6SM SCT030 BKN060
     FM261500 24008KT P6SM SCT200=



000
FTUS43 KMPX 251135
TAFRWF
TAF
KRWF 251135Z 2512/2612 01008KT P6SM OVC012
     FM252000 34004KT P6SM SCT050
     FM260300 19006KT P6SM BKN050
     FM260700 19013KT P6SM BKN050=



000
FTUS43 KMPX 251003 AAC
TAFMSP
TAF AMD
KMSP 251003Z 2510/2612 03015KT P6SM BKN025 OVC070
      TEMPO 2510/2511 OVC018
     FM251700 03007KT P6SM SCT025
     FM252100 20004KT P6SM FEW025 SCT100=



000
FTUS43 KMPX 250841 AAB
TAFMSP
TAF AMD
KMSP 250841Z 2509/2612 03015KT P6SM BKN025 OVC070
      TEMPO 2509/2511 OVC012
     FM251700 03007KT P6SM SCT025
     FM252100 20004KT P6SM FEW025 SCT100=



000
FTUS43 KMPX 250723 AAA
TAFMSP
TAF AMD
KMSP 250723Z 2507/2612 03010KT 4SM -SN BR SCT008 BKN015 OVC025
     FM250830 03015KT P6SM BKN025 OVC070
     FM251700 03007KT P6SM SCT025
     FM252100 20004KT P6SM FEW025 SCT100=



000
FTUS43 KMPX 250544
TAFSTC
TAF
KSTC 250544Z 2506/2606 04006KT P6SM -SNDZ BKN025 OVC035
      TEMPO 2506/2508 SCT025 OVC100
     FM250800 03007KT P6SM OVC020
     FM252000 VRB03KT P6SM SCT025
     FM252300 20008KT P6SM FEW030 BKN200=



000
FTUS43 KMPX 250544
TAFMSP
TAF
KMSP 250544Z 2506/2612 03010KT 6SM -DZ OVC050
     FM250630 03010KT 5SM -SN BKN025 OVC050
     FM250800 03015KT P6SM BKN025 OVC070
     FM251700 03007KT P6SM SCT025
     FM252100 20004KT P6SM FEW025 SCT100=



000
FTUS43 KMPX 250544
TAFAXN
TAF
KAXN 250544Z 2506/2606 04009KT 6SM BR SCT020 OVC100
      TEMPO 2506/2510 BKN020 OVC100
     FM251000 04007KT P6SM OVC020
     FM252100 23003KT P6SM BKN025=



000
FTUS43 KMPX 250544
TAFEAU
TAF
KEAU 250544Z 2506/2606 04006KT 6SM -SN OVC030
     FM250900 03012KT P6SM FEW015 OVC025
     FM251700 03009KT P6SM SCT025=



000
FTUS43 KMPX 250544
TAFRWF
TAF
KRWF 250544Z 2506/2606 02008KT 6SM -SNDZ BKN025 OVC070
     FM250700 03010KT 2SM -SN OVC020
     FM250900 03009KT P6SM BKN025 OVC070
     FM251500 03007KT P6SM SCT025
     FM252100 20004KT P6SM FEW025 SCT100=



000
FTUS43 KMPX 250315 AAA
TAFAXN
TAF AMD
KAXN 250315Z 2503/2524 04009KT 2SM -SN SCT007 OVC012
      TEMPO 2504/2507 4SM -SN OVC007
     FM250700 03012KT P6SM BKN025
     FM251100 03007KT P6SM SCT025
     FM252200 22005KT P6SM BKN200=



000
FTUS43 KMPX 250312 AAA
TAFRWF
TAF AMD
KRWF 250312Z 2503/2524 34005KT P6SM OVC070
     FM250500 36005KT 2SM -SN OVC030
     FM250600 01011G18KT 1 1/2SM -SN OVC009
     FM250800 03010KT 6SM -SN OVC020
     FM251100 03009KT P6SM BKN025
     FM251500 03007KT P6SM SCT025=



000
FTUS43 KMPX 250310 AAB
TAFMSP
TAF AMD
KMSP 250310Z 2503/2606 05007KT P6SM SCT025 OVC100
      TEMPO 2503/2506 BKN025 OVC100
     FM250600 03010KT 5SM -SN OVC025
     FM250800 03014G22KT P6SM -SN OVC014
     FM251000 03013KT P6SM BKN020
     FM251500 03010KT P6SM SCT030=



000
FTUS43 KMPX 250057 CCA
TAFSTC
TAF COR
KSTC 250057Z 2500/2524 03003KT P6SM FEW110 BKN250
     FM250100 VRB03KT P6SM BKN025 OVC050
     FM250400 04005KT 3SM -SN OVC012
     FM250600 03010KT P6SM -SN SCT007 OVC025
     FM250800 03009KT P6SM BKN025
     FM251300 03008KT P6SM SCT025=



000
FTUS43 KMPX 250056 AAA
TAFMSP
TAF AMD
KMSP 250056Z 2501/2606 VRB02KT P6SM BKN025 OVC100
     FM250500 03010KT 5SM -SN OVC015
     FM250700 03014G22KT P6SM -SN OVC014
     FM251000 03013KT P6SM BKN020
     FM251500 03010KT P6SM SCT030=



000
FTUS43 KMPX 250045 CCA
TAFAXN
TAF COR
KAXN 250045Z 2501/2524 04007KT P6SM OVC100
     FM250100 05009KT 5SM -SN SCT007 OVC012
      TEMPO 2504/2506 3SM -SN OVC007
     FM250700 04012KT P6SM BKN025
     FM251100 03007KT P6SM SCT025=



000
FTUS43 KMPX 242344
TAFAXN
TAF
KAXN 242344Z 2500/2524 31003KT P6SM OVC100
     FM250200 05009KT 5SM -SN SCT007 OVC012
      TEMPO 2504/2506 3SM -SN OVC007
     FM250700 04012KT P6SM BKN025
     FM251100 03007KT P6SM SCT025=



000
FTUS43 KMPX 242344
TAFSTC
TAF
KSTC 242344Z 2500/2524 03003KT P6SM FEW110 BKN250
     FM250200 VRB03KT P6SM BKN030 OVC050
     FM250400 04005KT 3SM -SN OVC012
     FM250600 03010KT P6SM -SN SCT007 OVC025
     FM250800 03009KT P6SM BKN025
     FM251300 03008KT P6SM SCT025=



000
FTUS43 KMPX 242344
TAFRWF
TAF
KRWF 242344Z 2500/2524 31005KT P6SM VCSH OVC070
     FM250300 36005KT 2SM -SN OVC030
     FM250400 03011KT 1 1/2SM -SN OVC009
     FM250800 03010KT 6SM -SN OVC020
     FM251100 03009KT P6SM BKN025
     FM251500 03007KT P6SM SCT025=



000
FTUS43 KMPX 242344
TAFMSP
TAF
KMSP 242344Z 2500/2606 VRB02KT P6SM BKN120 OVC250
     FM250300 04007KT P6SM BKN025 OVC100
     FM250500 03010KT 4SM -SN OVC015
     FM250700 03014G22KT P6SM -SN OVC014
     FM251000 03013KT P6SM BKN020
     FM251500 03010KT P6SM SCT030=



000
FTUS43 KMPX 242344
TAFEAU
TAF
KEAU 242344Z 2500/2524 25006KT P6SM FEW010 BKN120
     FM250400 05006KT 6SM -SN OVC015
     FM250900 03012KT P6SM FEW015 OVC025
     FM251500 03009KT P6SM SCT025=



000
FTUS43 KMPX 242058 AAA
TAFMSP
TAF AMD
KMSP 242058Z 2421/2524 VRB05KT P6SM FEW120 BKN250
     FM250200 VRB03KT P6SM BKN025
     FM250400 05010KT 4SM -SN OVC015
      TEMPO 2504/2508 1SM -SN VV006
     FM250800 03011G20KT 6SM -SN OVC014
     FM251100 03012KT P6SM BKN020
     FM251500 03010KT P6SM SCT030=



000
FTUS43 KMPX 241739
TAFAXN
TAF
KAXN 241739Z 2418/2518 28010KT P6SM SCT120 BKN250
     FM242300 29005KT P6SM OVC020
     FM250000 04005KT 2SM -SN OVC012
      TEMPO 2502/2506 3/4SM -SN VV006
     FM250700 05009KT 5SM -SN SCT007 OVC012
     FM251000 04008KT P6SM BKN025
     FM251100 03007KT P6SM SCT025=



000
FTUS43 KMPX 241739
TAFRWF
TAF
KRWF 241739Z 2418/2518 27008KT P6SM SCT150
     FM250000 29005KT P6SM VCSH SCT020 BKN035 OVC070
     FM250300 36005KT 2SM -SN OVC020
     FM250400 03011KT 1 1/2SM -SN OVC009
      TEMPO 2504/2508 3/4SM -SN VV006
     FM250900 03010KT 6SM -SN OVC020
     FM251100 03009KT P6SM BKN025
     FM251500 03007KT P6SM SCT025=



000
FTUS43 KMPX 241739
TAFSTC
TAF
KSTC 241739Z 2418/2518 27006KT P6SM FEW110 BKN250
     FM250100 VRB03KT P6SM BKN025 OVC050
     FM250200 04005KT 3SM -SN OVC012
      TEMPO 2502/2506 1SM -SN VV009
     FM250800 03010KT P6SM -SN SCT007 OVC025
     FM250900 03009KT P6SM BKN025
     FM251300 03008KT P6SM SCT025=



000
FTUS43 KMPX 241739
TAFMSP
TAF
KMSP 241739Z 2418/2524 25005KT P6SM FEW120
     FM250200 VRB03KT P6SM BKN025
     FM250400 05010KT 3SM -SN OVC015
      TEMPO 2504/2508 1SM -SN VV006
     FM250800 03011G20KT 6SM -SN OVC014
     FM251100 03012KT P6SM BKN015
     FM251500 03010KT P6SM SCT015=



000
FTUS43 KMPX 241739
TAFEAU
TAF
KEAU 241739Z 2418/2518 25006KT P6SM FEW010 BKN120
     FM250200 VRB03KT P6SM OVC020
     FM250500 05006KT 6SM -SN OVC015
     FM251000 03012KT P6SM FEW015 OVC025
     FM251500 03009KT P6SM SCT025=



000
FTUS43 KMPX 241713 AAA
TAFEAU
TAF AMD
KEAU 241713Z 2417/2512 25006KT P6SM FEW010 BKN120
     FM250200 VRB03KT P6SM OVC020
     FM250500 05006KT 6SM -SN OVC012
      TEMPO 2505/2508 3SM -SN=



000
FTUS43 KMPX 241523 AAA
TAFSTC
TAF AMD
KSTC 241523Z 2415/2512 28006KT P6SM FEW110
      TEMPO 2415/2418 3SM BR
     FM242100 25005KT P6SM BKN020 OVC050
     FM242300 04005KT 2SM -SN OVC012
      TEMPO 2502/2506 3/4SM -SN VV006
     FM251000 03007KT P6SM -SN SCT007 OVC025=



000
FTUS43 KMPX 241500 AAA
TAFMSP
TAF AMD
KMSP 241500Z 2415/2518 25005KT P6SM FEW120
     FM242000 22004KT P6SM OVC020
     FM250200 03010KT 2SM -SN OVC012
      TEMPO 2503/2507 3/4SM -SN VV006
     FM250800 03011G20KT 3SM -SN OVC014
     FM251200 03012KT P6SM SCT015 BKN070=



000
FTUS43 KMPX 241121
TAFEAU
TAF
KEAU 241121Z 2412/2512 24004KT 6SM BR OVC009
     FM241400 25006KT P6SM BKN015 BKN150
     FM250300 05006KT 2SM -SN OVC012
      TEMPO 2503/2507 1SM -SN VV006=



000
FTUS43 KMPX 241121
TAFMSP
TAF
KMSP 241121Z 2412/2518 25004KT 6SM BR BKN150
     FM241400 25005KT P6SM BKN120
     FM242000 22004KT P6SM OVC020
     FM250200 03010KT 2SM -SN OVC012
      TEMPO 2503/2507 3/4SM -SN VV006
     FM250800 03011G20KT 3SM -SN OVC014
     FM251200 03012KT P6SM SCT015 BKN070=



000
FTUS43 KMPX 241121
TAFAXN
TAF
KAXN 241121Z 2412/2512 28010KT P6SM SCT120
     FM242000 29005KT P6SM OVC020
     FM242300 04005KT 2SM -SN OVC012
      TEMPO 2502/2506 3/4SM -SN VV006
     FM251000 05006KT 5SM -SN SCT007 OVC012=



000
FTUS43 KMPX 241121
TAFRWF
TAF
KRWF 241121Z 2412/2512 27008KT P6SM SCT150
     FM242200 29005KT P6SM VCSH BKN020 OVC070
     FM250000 36005KT 1 1/2SM -RASN OVC012
     FM250200 36011KT 1 1/2SM -SN OVC009
      TEMPO 2502/2506 3/4SM -SN VV006=



000
FTUS43 KMPX 241121
TAFSTC
TAF
KSTC 241121Z 2412/2512 28006KT P6SM BKN100
     FM242100 25005KT P6SM BKN020 OVC050
     FM242300 04005KT 2SM -SN OVC012
      TEMPO 2502/2506 3/4SM -SN VV006
     FM251000 03007KT P6SM -SN SCT007 OVC025=



000
FTUS43 KMPX 240902 AAA
TAFEAU
TAF AMD
KEAU 240902Z 2409/2506 23004KT 6SM BR BKN012
     FM241400 26006KT P6SM BKN025 BKN150
     FM250300 04005KT 2SM -SN OVC012
      TEMPO 2503/2506 1SM -SN VV006=



000
FTUS43 KMPX 240859 AAA
TAFMSP
TAF AMD
KMSP 240859Z 2409/2512 25004KT 6SM BR BKN150
     FM241400 25005KT P6SM BKN120
     FM242000 28005KT P6SM OVC020
     FM250200 03006KT 1 1/2SM -SN OVC012
      TEMPO 2503/2507 3/4SM -SN VV006
     FM250800 03011KT 3SM -SN OVC014=



000
FTUS43 KMPX 240520
TAFRWF
TAF
KRWF 240520Z 2406/2506 28009KT P6SM FEW150
     FM242200 28005KT P6SM OVC020
     FM250000 01005KT 1 1/2SM -SN OVC012
      TEMPO 2503/2506 3/4SM -SN VV006=



000
FTUS43 KMPX 240520
TAFAXN
TAF
KAXN 240520Z 2406/2506 28010KT P6SM FEW150
     FM242000 28005KT P6SM OVC020
     FM242200 04005KT 1 1/2SM -SN OVC012
      TEMPO 2502/2506 3/4SM -SN VV006=



000
FTUS43 KMPX 240520
TAFSTC
TAF
KSTC 240520Z 2406/2506 28006KT P6SM FEW050 SCT150
     FM242000 28005KT P6SM OVC020
     FM242300 04005KT 1 1/2SM -SN OVC012
      TEMPO 2503/2506 3/4SM -SN VV006=



000
FTUS43 KMPX 240520
TAFMSP
TAF
KMSP 240520Z 2406/2512 28005KT P6SM FEW050 SCT150
     FM242000 28005KT P6SM OVC020
     FM250200 03006KT 1 1/2SM -SN OVC012
      TEMPO 2503/2507 3/4SM -SN VV006
     FM250800 03011KT 3SM -SN OVC014=



000
FTUS43 KMPX 240520
TAFEAU
TAF
KEAU 240520Z 2406/2506 24005KT P6SM SCT025 BKN050
      TEMPO 2406/2410 BKN025 OVC050
     FM241000 27006KT P6SM BKN025 BKN150
     FM250300 04005KT 2SM -SN OVC012
      TEMPO 2503/2506 1SM -SN VV006=



000
FTUS43 KMPX 240232 AAA
TAFMSP
TAF AMD
KMSP 240232Z 2403/2506 28005KT P6SM FEW035
     FM240800 29007KT P6SM SCT050 SCT150
     FM242000 28005KT P6SM OVC020
     FM250400 06006KT 1 1/2SM -SN OVC012=



000
FTUS43 KMPX 232341
TAFEAU
TAF
KEAU 232341Z 2400/2424 24005KT P6SM OVC035
     FM240100 25005KT P6SM OVC030
     FM241000 28006KT P6SM BKN050 BKN150
     FM242100 28005KT P6SM OVC018=



000
FTUS43 KMPX 232341
TAFMSP
TAF
KMSP 232341Z 2400/2506 25005KT P6SM FEW025
      TEMPO 2402/2403 BKN025
     FM240800 29007KT P6SM SCT050 BKN150
     FM242000 28005KT P6SM OVC020
     FM250400 06006KT 1 1/2SM -SN OVC012=



000
FTUS43 KMPX 232341
TAFRWF
TAF
KRWF 232341Z 2400/2424 29010KT P6SM SKC
     FM240800 29007KT P6SM FEW050 SCT150
     FM242300 28005KT P6SM OVC020=



000
FTUS43 KMPX 232341
TAFSTC
TAF
KSTC 232341Z 2400/2424 30009KT P6SM FEW025 SCT050
      TEMPO 2408/2412 5SM BR BKN050
     FM241600 28005KT P6SM OVC020=



000
FTUS43 KMPX 232341
TAFAXN
TAF
KAXN 232341Z 2400/2424 29009KT P6SM SCT050
     FM241600 28005KT P6SM OVC020=



000
FTUS43 KMPX 232201 AAA
TAFRWF
TAF AMD
KRWF 232201Z 2322/2418 30010KT P6SM SKC
     FM240300 30008KT P6SM FEW020
     FM240800 29006KT 6SM BR BKN010=



000
FTUS43 KMPX 232201 AAA
TAFRWF
TAF AMD
KRWF 232201Z 2322/2418 30010KT P6SM SKC
     FM240300 30008KT P6SM FEW020
     FM240800 29006KT 6SM BR BKN010=



000
FTUS43 KMPX 232154 AAA
TAFAXN
TAF AMD
KAXN 232154Z 2322/2418 30011KT P6SM SKC
     FM240800 30008KT 4SM BR BKN010=



000
FTUS43 KMPX 232154 AAA
TAFAXN
TAF AMD
KAXN 232154Z 2322/2418 30011KT P6SM SKC
     FM240800 30008KT 4SM BR BKN010=



000
FTUS43 KMPX 232150 AAA
TAFSTC
TAF AMD
KSTC 232150Z 2322/2418 25009KT P6SM SKC
     FM240000 30008KT P6SM SCT025
      TEMPO 2402/2406 BKN025
     FM240600 30008KT 4SM BR FEW015
     FM241200 29005KT 4SM BR OVC015=



000
FTUS43 KMPX 232150 AAA
TAFSTC
TAF AMD
KSTC 232150Z 2322/2418 25009KT P6SM SKC
     FM240000 30008KT P6SM SCT025
      TEMPO 2402/2406 BKN025
     FM240600 30008KT 4SM BR FEW015
     FM241200 29005KT 4SM BR OVC015=



000
FTUS43 KMPX 232058 AAA
TAFMSP
TAF AMD
KMSP 232058Z 2321/2424 26010KT P6SM SKC
     FM240000 29008KT P6SM BKN025
     FM240800 29006KT 4SM BR OVC015
     FM241700 28005KT P6SM OVC020=



    US Dept of Commerce
    National Oceanic and Atmospheric Administration
    National Weather Service
    1325 East West Highway
    Silver Spring, MD 20910
    Page Author: NWS Internet Services Team
Disclaimer
Information Quality
Credits
Glossary
Privacy Policy
Freedom of Information Act (FOIA)
About Us
Career Opportunities